DAOOLXGB

Guest
Details From DAOO - ES SENIA
To LXGB - Gibraltar
Flight Number -
Tags generated
Created
Modified
Stats Distance 241 nm / 447 km
Max Altitude 30,500 ft / 9,296 m
Waypoints 5
Social Downloads 0
Likes 0
Share VATSIM

Download

Looking for another format? Having issues loading an existing format? Contact us
Advertisement - Login to hide

Notes

Basic altitude profile: - Ascent Rate: 2500ft/min - Ascent Speed: 250kts - Cruise Altitude: 35000ft - Cruise Speed: 420kts - Descent Rate: 1500ft/min - Descent Speed: 250kts Options: - Use NATs: yes - Use PACOTS: yes - Use low airways: yes - Use high airways: yes

Route

DAOO LIGUM UL195 GONZA T100 GIVRA LXGB

ID Type Via Altitude Latitude Longitude Leg Dist Tot Dist Heading (true) Name
O DAOO APT - 0 ft / 0 m 35.62386˚ -0.62118˚ - 0 nm - ES SENIA
LIGUM FIX - 24,400 ft / 7,437 m 35.83333˚ -2.00000˚ 68 nm 68 nm 281° / 280° -
GONZA FIX UL195 (AWY-HI) 30,500 ft / 9,296 m 36.20476˚ -2.87694˚ 48 nm 116 nm 298° / 297° -
GIVRA FIX T100 (AWY-LO) 6,500 ft / 1,981 m 35.93083˚ -4.87361˚ 98 nm 214 nm 261° / 260° -
O LXGB APT - 0 ft / 0 m 36.15121˚ -5.34966˚ 26 nm 241 nm 300° / 300° Gibraltar

Altitude Profile

Advertisement - Login to hide

Weather


0- 5 10 15 20 25 30 35+ Temperature / ° C

Clouds and Precipitation
Forecast for 2017-12-13 00:00 UTC. Updated an hour ago

Ground ~20,000 ft ~40,000 ft Winds

DAOO

Details ICAO DAOO (ORN)
Name ES SENIA
Region Algeria
Timezone Africa/Algiers (UTC+1.0)
Stats Elevation 295 ft / 90 m (AMSL)
Location 35.623858° -0.621183°
Runways 1
Magnetic Variation 0.151° E

METAR

DAOO 122030Z 25002KT 9999 BKN033 10/09 Q1022

Decode

TAF

TAF DAOO 121700Z 1218/1318 28005KT 9999 FEW020 SCT033 SCT233 BECMG 1219/1221 VRB02KT 9999 FEW026 BECMG 1215/1218 04005KT CAVOK

Decode

Departure Runways

ID Width Length Bearing (true) Bearing (mag) Surface Threshold Offset Overrun Length
07 148 ft / 45 m 10,006 ft / 3,050 m 67.06° 66.91° Asphalt 0 ft / 0 m 328 ft / 100 m
25 148 ft / 45 m 10,006 ft / 3,050 m 247.08° 246.93° Asphalt 196 ft / 60 m 0 ft / 0 m

LXGB

Details ICAO LXGB (GIB)
Name Gibraltar
Region Gibralter
Timezone Europe/Gibraltar (UTC+1.0)
Stats Elevation 15 ft / 5 m (AMSL)
Location 36.151209° -5.349664°
Runways 1
Magnetic Variation 1.123° W

METAR

LXGB 121950Z AUTO 32003KT 9999 // NCD 12/01 Q1021

Decode

TAF

Not found

Destination Runways

ID Width Length Bearing (true) Bearing (mag) Surface Threshold Offset Overrun Length
27 151 ft / 46 m 5,992 ft / 1,826 m 267.56° 268.68° Asphalt 367 ft / 112 m 89 ft / 27 m
9 151 ft / 46 m 5,992 ft / 1,826 m 87.54° 88.66° Asphalt 299 ft / 91 m 52 ft / 16 m

Popular Alternatives